Terminal Aerodrome Forecast
Issued by NWS Dodge City, KS

Home | Current Version | Previous Version | Graphics & Text | Print | Product List | Glossary Off
Versions: 1 2 3 4 5 6 7 8 9 10 11 12 13 14 15 16 17 18 19 20 21 22 23 24 25 26 27 28 29

000
FTUS43 KDDC 250057 AAA
TAFDDC
TAF AMD
KDDC 250057Z 2501/2524 VRB03KT P6SM -TSRA OVC013CB
     FM250200 12005KT P6SM BKN040
     FM250600 VRB05KT 3SM BR SCT050
     FM250900 35007KT P6SM SCT100
     FM251300 01019G27KT P6SM SCT250=

USA.gov is the U.S. government's official web portal to all federal, state and local government web resources and services.